Time;durP1;ratioP1;P1;durP2;ratioP2;P2;SDS_P1;SDS_P2;PMS_P1;PMS_P2;Temp;Humidity;BMP_temperature;BMP_pressure;BME280_temperature;BME280_humidity;BME280_pressure;Samples;Min_cycle;Max_cycle;Signal;HPM_P1;HPM_P2
2023/11/14 00:03:28;;;;;;;;;;;12.80;99.90;;;;;;8359741;28;19929;-71
2023/11/14 00:07:30;;;;;;;;;;;12.80;99.90;;;;;;8359587;28;19972;-70
2023/11/14 00:11:34;;;;;;;;;;;12.80;99.90;;;;;;8359370;28;19928;-71
2023/11/14 00:15:36;;;;;;;;;;;12.90;99.90;;;;;;8358251;28;20031;-71
2023/11/14 00:19:39;;;;;;;;;;;12.90;99.90;;;;;;8355329;28;19929;-71
2023/11/14 00:23:41;;;;;;;;;;;12.90;99.90;;;;;;8359153;28;19925;-71
2023/11/14 00:27:43;;;;;;;;;;;13.00;99.90;;;;;;8358321;28;19924;-70
2023/11/14 00:31:45;;;;;;;;;;;13.00;99.90;;;;;;8355223;28;19937;-71
2023/11/14 00:35:47;;;;;;;;;;;13.10;99.90;;;;;;8355897;28;19933;-71
2023/11/14 00:39:48;;;;;;;;;;;13.10;99.90;;;;;;8356541;28;19932;-71
2023/11/14 00:48:10;;;;;;;;;;;13.20;99.90;;;;;;8355970;28;19924;-71
2023/11/14 00:52:13;;;;;;;;;;;13.20;99.90;;;;;;8356208;28;20015;-71
2023/11/14 00:56:14;;;;;;;;;;;13.20;99.90;;;;;;8354821;28;19925;-71
2023/11/14 01:00:17;;;;;;;;;;;13.20;99.90;;;;;;8368259;28;19925;-71
2023/11/14 01:04:20;;;;;;;;;;;13.20;99.90;;;;;;8347331;28;19951;-71
2023/11/14 01:08:22;;;;;;;;;;;13.20;99.90;;;;;;8342195;28;19943;-71
2023/11/14 01:12:25;;;;;;;;;;;13.20;99.90;;;;;;8342690;28;19929;-71
2023/11/14 01:16:27;;;;;;;;;;;13.20;99.90;;;;;;8342804;28;20349;-71
2023/11/14 01:20:28;;;;;;;;;;;13.10;99.90;;;;;;8340824;28;19954;-71
2023/11/14 01:24:30;;;;;;;;;;;13.10;99.90;;;;;;8354061;28;19925;-71
2023/11/14 01:28:32;;;;;;;;;;;13.10;99.90;;;;;;8351292;28;19932;-71
2023/11/14 01:32:33;;;;;;;;;;;13.10;99.90;;;;;;8353089;28;19960;-71
2023/11/14 01:36:37;;;;;;;;;;;13.10;99.90;;;;;;8363524;28;19924;-71
2023/11/14 01:40:46;;;;;;;;;;;13.10;99.90;;;;;;8350415;28;19935;-71
2023/11/14 01:44:48;;;;;;;;;;;13.10;99.90;;;;;;8355365;28;19929;-71
2023/11/14 01:48:50;;;;;;;;;;;13.10;99.90;;;;;;8353597;28;19978;-71
2023/11/14 01:52:54;;;;;;;;;;;13.10;99.90;;;;;;8343771;28;19924;-71
2023/11/14 01:56:57;;;;;;;;;;;13.10;99.90;;;;;;8356030;28;20036;-72
2023/11/14 02:00:58;;;;;;;;;;;13.10;99.90;;;;;;8351629;28;19924;-71
2023/11/14 02:05:01;;;;;;;;;;;13.10;99.90;;;;;;8347843;28;19947;-71
2023/11/14 02:09:03;;;;;;;;;;;13.10;99.90;;;;;;8350575;28;19935;-70
2023/11/14 02:13:05;;;;;;;;;;;13.10;99.90;;;;;;8349281;28;19929;-71
2023/11/14 02:17:13;;;;;;;;;;;13.00;99.90;;;;;;8351845;28;19933;-71
2023/11/14 02:21:15;;;;;;;;;;;12.70;99.90;;;;;;8351191;28;19934;-71
2023/11/14 02:25:16;;;;;;;;;;;12.60;99.90;;;;;;8353167;28;19925;-71
2023/11/14 02:29:19;;;;;;;;;;;12.50;99.90;;;;;;8346909;28;19925;-71
2023/11/14 02:48:32;;;;;;;;;;;12.60;99.90;;;;;;8352795;28;19916;-71
2023/11/14 02:52:38;;;;;;;;;;;12.40;99.90;;;;;;8362534;28;20398;-71
2023/11/14 02:56:39;;;;;;;;;;;12.40;99.90;;;;;;8357371;28;19925;-71
2023/11/14 03:00:48;;;;;;;;;;;12.40;99.90;;;;;;8350899;28;19925;-71
2023/11/14 03:04:51;;;;;;;;;;;12.40;99.90;;;;;;8342734;28;19971;-71
2023/11/14 03:08:52;;;;;;;;;;;12.40;99.90;;;;;;8337704;28;20001;-71
2023/11/14 03:12:54;;;;;;;;;;;12.30;99.90;;;;;;8342675;28;19929;-71
2023/11/14 03:16:56;;;;;;;;;;;12.30;99.90;;;;;;8339595;28;19951;-71
2023/11/14 03:20:57;;;;;;;;;;;12.30;99.90;;;;;;8339466;28;19937;-71
2023/11/14 03:24:59;;;;;;;;;;;12.30;99.90;;;;;;8327344;28;20289;-70
2023/11/14 03:29:00;;;;;;;;;;;12.20;99.90;;;;;;8343196;28;19998;-71
2023/11/14 03:33:02;;;;;;;;;;;12.20;99.90;;;;;;8339250;28;19931;-70
2023/11/14 03:37:04;;;;;;;;;;;12.10;99.90;;;;;;8351792;28;20573;-70
2023/11/14 03:41:06;;;;;;;;;;;12.10;99.90;;;;;;8339770;28;20269;-70
2023/11/14 03:45:08;;;;;;;;;;;12.10;99.90;;;;;;8354608;28;20384;-70
2023/11/14 03:49:10;;;;;;;;;;;12.10;99.90;;;;;;8360877;28;19932;-70
2023/11/14 03:53:11;;;;;;;;;;;12.10;99.90;;;;;;8354876;28;19932;-71
2023/11/14 03:57:13;;;;;;;;;;;12.20;99.90;;;;;;8377026;28;20002;-71
2023/11/14 04:01:16;;;;;;;;;;;12.30;99.90;;;;;;8356046;28;19932;-70
2023/11/14 04:05:18;;;;;;;;;;;12.30;99.90;;;;;;8358110;28;19929;-70
2023/11/14 04:09:19;;;;;;;;;;;12.40;99.90;;;;;;8326093;28;19956;-71
2023/11/14 04:13:21;;;;;;;;;;;12.40;99.90;;;;;;8340552;28;19932;-70
2023/11/14 04:17:23;;;;;;;;;;;12.50;99.90;;;;;;8340568;28;19947;-70
2023/11/14 04:21:25;;;;;;;;;;;12.60;99.90;;;;;;8352185;28;19929;-71
2023/11/14 04:25:27;;;;;;;;;;;12.60;99.90;;;;;;8353884;28;19924;-70
2023/11/14 04:29:29;;;;;;;;;;;12.60;99.90;;;;;;8353427;28;19924;-71
2023/11/14 04:33:30;;;;;;;;;;;12.60;99.90;;;;;;8353270;28;19925;-71
2023/11/14 04:37:32;;;;;;;;;;;12.60;99.90;;;;;;8355130;28;19978;-71
2023/11/14 04:41:34;;;;;;;;;;;12.60;99.90;;;;;;8356571;28;19932;-71
2023/11/14 04:45:35;;;;;;;;;;;12.60;99.90;;;;;;8354363;28;19986;-71
2023/11/14 04:49:37;;;;;;;;;;;12.60;99.90;;;;;;8337245;28;19933;-71
2023/11/14 04:53:39;;;;;;;;;;;12.60;99.90;;;;;;8353313;28;20032;-72
2023/11/14 04:57:41;;;;;;;;;;;12.60;99.90;;;;;;8357137;28;19933;-70
2023/11/14 05:01:42;;;;;;;;;;;12.60;99.90;;;;;;8358907;28;20512;-71
2023/11/14 05:05:44;;;;;;;;;;;12.60;99.90;;;;;;8338911;28;19929;-71
2023/11/14 05:09:46;;;;;;;;;;;12.60;99.90;;;;;;8357865;28;19943;-71
2023/11/14 05:13:47;;;;;;;;;;;12.50;99.90;;;;;;8354744;28;20026;-71
2023/11/14 05:17:49;;;;;;;;;;;12.60;99.90;;;;;;8356360;28;20388;-71
2023/11/14 05:21:51;;;;;;;;;;;12.60;99.90;;;;;;8355084;28;20384;-70
2023/11/14 05:25:52;;;;;;;;;;;12.60;99.90;;;;;;8356779;28;19932;-71
2023/11/14 05:29:55;;;;;;;;;;;12.60;99.90;;;;;;8355412;28;19932;-70
2023/11/14 05:33:56;;;;;;;;;;;12.60;99.90;;;;;;8355744;28;19925;-70
2023/11/14 05:37:58;;;;;;;;;;;12.60;99.90;;;;;;8354626;28;20304;-71
2023/11/14 05:42:00;;;;;;;;;;;12.60;99.90;;;;;;8355612;28;20300;-71
2023/11/14 05:46:01;;;;;;;;;;;12.60;99.90;;;;;;8354819;28;19925;-71
2023/11/14 05:50:04;;;;;;;;;;;12.60;99.90;;;;;;8352277;28;20424;-71
2023/11/14 05:54:06;;;;;;;;;;;12.60;99.90;;;;;;8353119;28;19939;-70
2023/11/14 05:58:07;;;;;;;;;;;12.60;99.90;;;;;;8353478;28;20348;-71
2023/11/14 06:02:10;;;;;;;;;;;12.60;99.90;;;;;;8346063;28;20411;-71
2023/11/14 06:06:12;;;;;;;;;;;12.60;99.90;;;;;;8346968;28;20022;-71
2023/11/14 06:10:14;;;;;;;;;;;12.60;99.90;;;;;;8349164;28;20388;-71
2023/11/14 06:14:16;;;;;;;;;;;12.60;99.90;;;;;;8351337;28;19928;-71
2023/11/14 06:18:18;;;;;;;;;;;12.60;99.90;;;;;;8355753;28;19935;-71
2023/11/14 06:22:19;;;;;;;;;;;12.60;99.90;;;;;;8355908;28;19932;-71
2023/11/14 06:26:21;;;;;;;;;;;12.70;99.90;;;;;;8353175;28;19925;-71
2023/11/14 06:30:23;;;;;;;;;;;12.70;99.90;;;;;;8348965;28;19978;-71
2023/11/14 06:34:25;;;;;;;;;;;12.70;99.90;;;;;;8356094;28;19929;-71
2023/11/14 06:38:55;;;;;;;;;;;12.70;99.90;;;;;;8365135;28;20292;-70
2023/11/14 06:42:56;;;;;;;;;;;12.70;99.90;;;;;;8361148;28;19975;-71
2023/11/14 06:46:58;;;;;;;;;;;12.70;99.90;;;;;;8359362;28;19925;-71
2023/11/14 06:51:00;;;;;;;;;;;12.70;99.90;;;;;;8355293;28;19925;-71
2023/11/14 06:55:02;;;;;;;;;;;12.70;99.90;;;;;;8364938;28;19973;-70
2023/11/14 06:59:06;;;;;;;;;;;12.50;99.90;;;;;;8361030;28;21307;-70
2023/11/14 07:03:10;;;;;;;;;;;12.30;99.90;;;;;;8362845;28;20300;-70
2023/11/14 07:07:12;;;;;;;;;;;12.10;99.90;;;;;;8363123;28;19932;-70
2023/11/14 07:11:13;;;;;;;;;;;12.00;99.90;;;;;;8362459;28;19932;-71
2023/11/14 07:15:20;;;;;;;;;;;11.90;99.90;;;;;;8361153;28;19931;-70
2023/11/14 07:19:22;;;;;;;;;;;11.90;99.90;;;;;;8360738;28;20335;-70
2023/11/14 07:23:24;;;;;;;;;;;11.90;99.90;;;;;;8360427;28;19925;-70
2023/11/14 07:27:25;;;;;;;;;;;11.80;99.90;;;;;;8363113;28;20283;-71
2023/11/14 07:31:27;;;;;;;;;;;11.90;99.90;;;;;;8362584;28;19936;-70
2023/11/14 07:35:29;;;;;;;;;;;11.90;99.90;;;;;;8363568;28;19925;-70
2023/11/14 07:39:31;;;;;;;;;;;12.00;99.90;;;;;;8361680;28;20380;-70
2023/11/14 07:43:32;;;;;;;;;;;12.00;99.90;;;;;;8359827;28;19931;-71
2023/11/14 07:47:34;;;;;;;;;;;12.00;99.90;;;;;;8360869;28;19951;-71
2023/11/14 07:51:36;;;;;;;;;;;12.10;99.90;;;;;;8362409;28;19929;-71
2023/11/14 07:55:38;;;;;;;;;;;12.10;99.90;;;;;;8360327;28;19974;-71
2023/11/14 07:59:40;;;;;;;;;;;12.10;99.90;;;;;;8356523;28;19924;-71
2023/11/14 08:03:41;;;;;;;;;;;12.20;99.90;;;;;;8353284;28;20391;-70
2023/11/14 08:07:43;;;;;;;;;;;12.20;99.90;;;;;;8358889;28;19971;-70
2023/11/14 08:11:45;;;;;;;;;;;12.10;99.90;;;;;;8360226;28;19947;-70
2023/11/14 08:15:47;;;;;;;;;;;12.10;99.90;;;;;;8332632;28;20407;-70
2023/11/14 08:19:49;;;;;;;;;;;12.00;99.90;;;;;;8345319;28;19925;-70
2023/11/14 08:23:51;;;;;;;;;;;12.00;99.90;;;;;;8358292;28;20285;-70
2023/11/14 08:27:53;;;;;;;;;;;12.00;99.90;;;;;;8359024;28;19925;-70
2023/11/14 08:31:55;;;;;;;;;;;12.00;99.90;;;;;;8357196;28;19983;-70
2023/11/14 08:35:56;;;;;;;;;;;12.00;99.90;;;;;;8341978;28;19929;-70
2023/11/14 08:39:58;;;;;;;;;;;12.00;99.90;;;;;;8356933;28;19964;-70
2023/11/14 08:44:00;;;;;;;;;;;12.00;99.90;;;;;;8356761;28;20391;-71
2023/11/14 08:48:03;;;;;;;;;;;12.00;99.90;;;;;;8358627;28;20335;-70
2023/11/14 08:52:05;;;;;;;;;;;12.00;99.90;;;;;;8361075;28;19929;-70
2023/11/14 08:56:07;;;;;;;;;;;12.00;99.90;;;;;;8359176;28;19932;-70
2023/11/14 09:00:10;;;;;;;;;;;12.00;99.90;;;;;;8358512;28;19925;-70
2023/11/14 09:04:12;;;;;;;;;;;12.00;99.90;;;;;;8361436;28;19924;-70
2023/11/14 09:08:13;;;;;;;;;;;12.10;99.90;;;;;;8353224;28;19924;-70
2023/11/14 09:12:15;;;;;;;;;;;12.10;99.90;;;;;;8346168;28;19925;-70
2023/11/14 09:16:17;;;;;;;;;;;12.20;99.90;;;;;;8353809;28;19925;-70
2023/11/14 09:20:19;;;;;;;;;;;12.20;99.90;;;;;;8357796;28;19924;-70
2023/11/14 09:24:20;;;;;;;;;;;12.30;99.90;;;;;;8359769;28;19924;-70
2023/11/14 09:28:22;;;;;;;;;;;12.30;99.90;;;;;;8354695;28;20292;-70
2023/11/14 09:32:24;;;;;;;;;;;12.40;99.90;;;;;;8359606;28;20392;-70
2023/11/14 09:36:26;;;;;;;;;;;12.40;99.90;;;;;;8358305;28;19929;-70
2023/11/14 09:40:28;;;;;;;;;;;12.50;99.90;;;;;;8339287;28;19924;-70
2023/11/14 09:44:29;;;;;;;;;;;12.50;99.90;;;;;;8359638;28;19978;-70
2023/11/14 09:48:31;;;;;;;;;;;12.50;99.90;;;;;;8337855;28;19951;-71
2023/11/14 09:52:34;;;;;;;;;;;12.60;99.90;;;;;;8353504;28;19969;-70
2023/11/14 09:56:38;;;;;;;;;;;12.70;99.90;;;;;;8357357;28;19924;-71
2023/11/14 10:00:39;;;;;;;;;;;13.00;99.90;;;;;;8354275;28;20386;-70
2023/11/14 10:04:44;;;;;;;;;;;13.10;99.90;;;;;;8358320;28;19925;-70
2023/11/14 10:08:50;;;;;;;;;;;13.10;99.90;;;;;;8355250;28;19925;-70
2023/11/14 10:12:56;;;;;;;;;;;13.20;99.90;;;;;;8359058;28;20362;-70
2023/11/14 10:16:58;;;;;;;;;;;13.20;99.90;;;;;;8357060;28;20292;-70
2023/11/14 10:21:00;;;;;;;;;;;13.20;99.90;;;;;;8355973;28;19924;-70
2023/11/14 10:25:02;;;;;;;;;;;13.20;99.90;;;;;;8358310;28;20023;-70
2023/11/14 10:29:04;;;;;;;;;;;13.30;99.90;;;;;;8356617;28;20718;-70
2023/11/14 10:33:06;;;;;;;;;;;13.40;99.90;;;;;;8359744;28;19925;-70
2023/11/14 10:37:08;;;;;;;;;;;13.50;99.90;;;;;;8373679;28;19924;-70
2023/11/14 10:41:09;;;;;;;;;;;13.50;99.90;;;;;;8356411;28;20365;-70
2023/11/14 10:45:11;;;;;;;;;;;13.50;99.90;;;;;;8358133;28;20334;-70
2023/11/14 10:49:14;;;;;;;;;;;13.50;99.90;;;;;;8357871;28;19928;-70
2023/11/14 10:53:16;;;;;;;;;;;13.40;99.90;;;;;;8357270;28;20395;-71
2023/11/14 10:57:19;;;;;;;;;;;13.50;99.90;;;;;;8347753;28;19931;-71
2023/11/14 11:01:26;;;;;;;;;;;13.50;99.90;;;;;;8351583;28;19931;-70
2023/11/14 11:05:31;;;;;;;;;;;13.60;99.90;;;;;;8355842;28;20275;-70
2023/11/14 11:09:33;;;;;;;;;;;13.60;99.90;;;;;;8356939;28;19925;-70
2023/11/14 11:13:35;;;;;;;;;;;13.60;99.90;;;;;;8354184;28;20296;-70
2023/11/14 11:17:39;;;;;;;;;;;13.60;99.90;;;;;;8356041;28;19924;-71
2023/11/14 11:21:55;;;;;;;;;;;13.70;99.90;;;;;;8355661;28;20402;-71
2023/11/14 11:26:15;;;;;;;;;;;13.70;99.90;;;;;;8353378;28;19925;-70
2023/11/14 11:30:19;;;;;;;;;;;13.70;99.90;;;;;;8357094;28;19925;-70
2023/11/14 11:34:28;;;;;;;;;;;13.70;99.90;;;;;;8347792;28;19939;-70
2023/11/14 11:38:29;;;;;;;;;;;13.80;99.90;;;;;;8359904;28;19932;-70
2023/11/14 11:42:32;;;;;;;;;;;13.80;99.90;;;;;;8361254;28;19929;-70
2023/11/14 11:46:45;;;;;;;;;;;13.80;99.90;;;;;;8360287;28;20141;-70
2023/11/14 11:50:47;;;;;;;;;;;13.80;99.90;;;;;;8361761;28;19970;-71
2023/11/14 11:54:49;;;;;;;;;;;13.80;99.90;;;;;;8358468;28;19940;-70
2023/11/14 11:58:51;;;;;;;;;;;13.80;99.90;;;;;;8361667;28;19929;-70
2023/11/14 12:02:53;;;;;;;;;;;13.70;99.90;;;;;;8354570;28;20279;-70
2023/11/14 12:06:55;;;;;;;;;;;13.80;99.90;;;;;;8359181;28;19929;-70
2023/11/14 12:10:57;;;;;;;;;;;13.80;99.90;;;;;;8361041;28;19924;-70
2023/11/14 12:14:58;;;;;;;;;;;13.80;99.90;;;;;;8357733;28;19925;-70
2023/11/14 12:19:00;;;;;;;;;;;13.80;99.90;;;;;;8361799;28;19932;-70
2023/11/14 12:23:02;;;;;;;;;;;13.80;99.90;;;;;;8360784;28;19925;-70
2023/11/14 12:27:03;;;;;;;;;;;13.70;99.90;;;;;;8357354;28;19932;-70
2023/11/14 12:31:11;;;;;;;;;;;13.60;99.90;;;;;;8362566;28;19928;-70
2023/11/14 12:35:13;;;;;;;;;;;13.40;99.90;;;;;;8354703;28;20018;-71
2023/11/14 12:39:16;;;;;;;;;;;13.40;99.90;;;;;;8360059;28;20610;-71
2023/11/14 12:43:18;;;;;;;;;;;13.40;99.90;;;;;;8361923;28;19975;-71
2023/11/14 12:47:21;;;;;;;;;;;13.30;99.90;;;;;;8355043;28;19925;-70
2023/11/14 12:51:23;;;;;;;;;;;13.10;99.90;;;;;;8361278;28;19962;-70
2023/11/14 12:55:25;;;;;;;;;;;13.00;99.90;;;;;;8357103;28;19925;-70
2023/11/14 12:59:27;;;;;;;;;;;12.80;99.90;;;;;;8358296;28;19928;-70
2023/11/14 13:03:29;;;;;;;;;;;12.70;99.90;;;;;;8361373;28;19925;-70
2023/11/14 13:07:31;;;;;;;;;;;12.60;99.90;;;;;;8355898;28;19977;-71
2023/11/14 13:11:34;;;;;;;;;;;12.50;99.90;;;;;;8359064;28;20391;-71
2023/11/14 13:15:36;;;;;;;;;;;12.40;99.90;;;;;;8356591;28;19925;-71
2023/11/14 13:19:38;;;;;;;;;;;12.40;99.90;;;;;;8371616;28;19978;-71
2023/11/14 13:23:41;;;;;;;;;;;12.30;99.90;;;;;;8358945;28;19995;-71
2023/11/14 13:27:42;;;;;;;;;;;12.20;99.90;;;;;;8359063;28;19929;-71
2023/11/14 13:31:44;;;;;;;;;;;12.20;99.90;;;;;;8355988;28;19929;-71
2023/11/14 13:35:46;;;;;;;;;;;12.10;99.90;;;;;;8357915;28;20032;-71
2023/11/14 13:39:48;;;;;;;;;;;12.10;99.90;;;;;;8358706;28;19937;-71
2023/11/14 13:43:49;;;;;;;;;;;12.10;99.90;;;;;;8354750;28;20296;-71
2023/11/14 13:47:51;;;;;;;;;;;12.00;99.90;;;;;;8357711;28;19924;-71
2023/11/14 13:51:53;;;;;;;;;;;12.00;99.90;;;;;;8357845;28;19932;-71
2023/11/14 13:55:55;;;;;;;;;;;12.00;99.90;;;;;;8357084;28;19932;-71
2023/11/14 13:59:57;;;;;;;;;;;12.00;99.90;;;;;;8358470;28;20323;-71
2023/11/14 14:04:00;;;;;;;;;;;12.00;99.90;;;;;;8353201;28;19925;-71
2023/11/14 14:08:02;;;;;;;;;;;11.90;99.90;;;;;;8358083;28;20011;-71
2023/11/14 14:12:06;;;;;;;;;;;11.90;99.90;;;;;;8355289;28;19977;-71
2023/11/14 14:16:08;;;;;;;;;;;11.90;99.90;;;;;;8355357;28;19936;-71
2023/11/14 14:20:14;;;;;;;;;;;11.90;99.90;;;;;;8374374;28;19924;-71
2023/11/14 14:24:16;;;;;;;;;;;11.80;99.90;;;;;;8347535;28;19925;-71
2023/11/14 14:28:20;;;;;;;;;;;11.80;99.90;;;;;;8357292;28;19924;-71
2023/11/14 14:32:22;;;;;;;;;;;11.80;99.90;;;;;;8372034;28;19929;-71
2023/11/14 14:36:25;;;;;;;;;;;11.70;99.90;;;;;;8356185;28;19995;-71
2023/11/14 14:40:26;;;;;;;;;;;11.60;99.90;;;;;;8356820;28;19924;-71
2023/11/14 14:44:29;;;;;;;;;;;11.50;99.90;;;;;;8354205;28;20363;-71
2023/11/14 14:48:32;;;;;;;;;;;11.50;99.90;;;;;;8356266;28;19952;-71
2023/11/14 14:52:34;;;;;;;;;;;11.50;99.90;;;;;;8357774;28;19939;-71
2023/11/14 14:56:36;;;;;;;;;;;11.40;99.90;;;;;;8351560;28;19978;-71
2023/11/14 15:00:37;;;;;;;;;;;11.40;99.90;;;;;;8356192;28;19986;-70
2023/11/14 15:04:39;;;;;;;;;;;11.30;99.90;;;;;;8354024;28;19975;-71
2023/11/14 15:08:41;;;;;;;;;;;11.30;99.90;;;;;;8355567;28;19925;-71
2023/11/14 15:12:43;;;;;;;;;;;11.20;99.90;;;;;;8359980;28;19975;-70
2023/11/14 15:16:46;;;;;;;;;;;11.20;99.90;;;;;;8357418;28;19925;-71
2023/11/14 15:20:49;;;;;;;;;;;11.10;99.90;;;;;;8358812;28;19928;-71
2023/11/14 15:24:52;;;;;;;;;;;11.10;99.90;;;;;;8358778;28;20422;-71
2023/11/14 15:28:53;;;;;;;;;;;11.00;99.90;;;;;;8362451;28;19947;-70
2023/11/14 15:32:57;;;;;;;;;;;11.00;99.90;;;;;;8362816;28;20380;-70
2023/11/14 15:37:01;;;;;;;;;;;10.90;99.90;;;;;;8360097;28;20304;-70
2023/11/14 15:41:03;;;;;;;;;;;10.90;99.90;;;;;;8361093;28;19979;-71
2023/11/14 15:45:05;;;;;;;;;;;10.90;99.90;;;;;;8361407;28;19933;-70
2023/11/14 15:49:07;;;;;;;;;;;10.80;99.90;;;;;;8361550;28;19924;-71
2023/11/14 15:53:09;;;;;;;;;;;10.80;99.90;;;;;;8362782;28;19978;-71
2023/11/14 15:57:12;;;;;;;;;;;10.80;99.90;;;;;;8352749;28;19964;-71
2023/11/14 16:01:13;;;;;;;;;;;10.70;99.90;;;;;;8361484;28;19925;-70
2023/11/14 16:05:15;;;;;;;;;;;10.70;99.90;;;;;;8360125;28;19925;-71
2023/11/14 16:09:17;;;;;;;;;;;10.70;99.90;;;;;;8358330;28;19936;-70
2023/11/14 16:13:19;;;;;;;;;;;10.70;99.90;;;;;;8359954;28;19932;-71
2023/11/14 16:17:23;;;;;;;;;;;10.60;99.90;;;;;;8355073;28;19947;-70
2023/11/14 16:21:25;;;;;;;;;;;10.60;99.90;;;;;;8360785;28;19932;-70
2023/11/14 16:25:27;;;;;;;;;;;10.60;99.90;;;;;;8359288;28;19925;-70
2023/11/14 16:29:28;;;;;;;;;;;10.60;99.90;;;;;;8358383;28;19933;-70
2023/11/14 16:33:30;;;;;;;;;;;10.60;99.90;;;;;;8373355;28;20374;-70
2023/11/14 16:37:32;;;;;;;;;;;10.60;99.90;;;;;;8358317;28;20486;-70
2023/11/14 16:41:36;;;;;;;;;;;10.60;99.90;;;;;;8350605;28;19935;-71
2023/11/14 16:45:38;;;;;;;;;;;10.60;99.90;;;;;;8351286;28;19935;-70
2023/11/14 16:49:40;;;;;;;;;;;10.60;99.90;;;;;;8349423;28;19931;-71
2023/11/14 16:53:41;;;;;;;;;;;10.50;99.90;;;;;;8349582;28;19979;-70
2023/11/14 16:57:44;;;;;;;;;;;10.50;99.90;;;;;;8350726;28;20372;-71
2023/11/14 17:01:46;;;;;;;;;;;10.60;99.90;;;;;;8346834;28;19928;-72
2023/11/14 17:05:48;;;;;;;;;;;10.50;99.90;;;;;;8347720;28;20343;-71
2023/11/14 17:09:50;;;;;;;;;;;10.50;99.90;;;;;;8334000;28;20438;-71
2023/11/14 17:13:52;;;;;;;;;;;10.50;99.90;;;;;;8341203;28;19932;-71
2023/11/14 17:17:54;;;;;;;;;;;10.50;99.90;;;;;;8357475;28;19933;-71
2023/11/14 17:21:56;;;;;;;;;;;10.50;99.90;;;;;;8345012;28;19936;-72
2023/11/14 17:25:57;;;;;;;;;;;10.50;99.90;;;;;;8334549;28;20265;-71
2023/11/14 17:29:59;;;;;;;;;;;10.50;99.90;;;;;;8336963;28;20372;-71
2023/11/14 17:34:01;;;;;;;;;;;10.50;99.90;;;;;;8345983;28;19964;-72
2023/11/14 17:38:03;;;;;;;;;;;10.50;99.90;;;;;;8342263;28;20380;-71
2023/11/14 17:42:06;;;;;;;;;;;10.50;99.90;;;;;;8348061;28;19929;-71
2023/11/14 17:46:09;;;;;;;;;;;10.50;99.90;;;;;;8339416;28;19933;-71
2023/11/14 17:50:11;;;;;;;;;;;10.50;99.90;;;;;;8345135;28;20257;-71
2023/11/14 17:54:13;;;;;;;;;;;10.50;99.90;;;;;;8345315;28;20467;-71
2023/11/14 17:58:14;;;;;;;;;;;10.50;99.90;;;;;;8347311;28;19999;-71
2023/11/14 18:02:16;;;;;;;;;;;10.50;99.90;;;;;;8347391;28;20016;-71
2023/11/14 18:06:19;;;;;;;;;;;10.50;99.90;;;;;;8346822;28;19933;-71
2023/11/14 18:10:21;;;;;;;;;;;10.50;99.90;;;;;;8346553;28;20360;-71
2023/11/14 18:14:22;;;;;;;;;;;10.50;99.90;;;;;;8343002;28;19931;-71
2023/11/14 18:18:24;;;;;;;;;;;10.50;99.90;;;;;;8348302;28;20481;-71
2023/11/14 18:22:26;;;;;;;;;;;10.50;99.90;;;;;;8347974;28;19972;-71
2023/11/14 18:26:28;;;;;;;;;;;10.50;99.90;;;;;;8345960;28;20038;-71
2023/11/14 18:30:32;;;;;;;;;;;10.50;99.90;;;;;;8349684;28;19978;-72
2023/11/14 18:34:37;;;;;;;;;;;10.50;99.90;;;;;;8346458;28;20296;-72
2023/11/14 18:38:39;;;;;;;;;;;10.50;99.90;;;;;;8344519;28;19929;-72
2023/11/14 18:42:42;;;;;;;;;;;10.50;99.90;;;;;;8350251;28;20406;-72
2023/11/14 18:46:44;;;;;;;;;;;10.50;99.90;;;;;;8344192;28;19928;-71
2023/11/14 18:50:47;;;;;;;;;;;10.50;99.90;;;;;;8361240;28;19924;-72
2023/11/14 18:54:49;;;;;;;;;;;10.50;99.90;;;;;;8358308;28;19924;-72
2023/11/14 18:58:50;;;;;;;;;;;10.50;99.90;;;;;;8349075;28;19978;-72
2023/11/14 19:02:52;;;;;;;;;;;10.50;99.90;;;;;;8346854;28;19925;-72
2023/11/14 19:06:54;;;;;;;;;;;10.50;99.90;;;;;;8340250;28;20085;-72
2023/11/14 19:10:56;;;;;;;;;;;10.60;99.90;;;;;;8355200;28;20327;-72
2023/11/14 19:14:59;;;;;;;;;;;10.60;99.90;;;;;;8338992;28;19932;-72
2023/11/14 19:19:01;;;;;;;;;;;10.60;99.90;;;;;;8335624;28;19925;-71
2023/11/14 19:23:05;;;;;;;;;;;10.60;99.90;;;;;;8345552;28;19983;-71
2023/11/14 19:27:26;;;;;;;;;;;10.60;99.90;;;;;;8328137;28;19954;-71
2023/11/14 19:31:28;;;;;;;;;;;10.70;99.90;;;;;;8345745;28;19933;-71
2023/11/14 19:35:30;;;;;;;;;;;10.70;99.90;;;;;;8345166;28;21044;-72
2023/11/14 19:39:31;;;;;;;;;;;10.70;99.90;;;;;;8348704;28;19982;-72
2023/11/14 19:43:33;;;;;;;;;;;10.70;99.90;;;;;;8356187;28;19925;-72
2023/11/14 19:47:35;;;;;;;;;;;10.70;99.90;;;;;;8353773;28;19975;-72
2023/11/14 19:51:38;;;;;;;;;;;10.70;99.90;;;;;;8340108;28;19925;-72
2023/11/14 19:55:40;;;;;;;;;;;10.80;99.90;;;;;;8357003;28;19933;-72
2023/11/14 19:59:42;;;;;;;;;;;10.80;99.90;;;;;;8348007;28;19925;-72
2023/11/14 20:03:44;;;;;;;;;;;10.80;99.90;;;;;;8349603;28;19940;-71
2023/11/14 20:07:46;;;;;;;;;;;10.80;99.90;;;;;;8352288;28;19924;-72
2023/11/14 20:11:47;;;;;;;;;;;10.80;99.90;;;;;;8353299;28;19924;-72
2023/11/14 20:15:49;;;;;;;;;;;10.80;99.90;;;;;;8350047;28;19925;-72
2023/11/14 20:19:51;;;;;;;;;;;10.80;99.90;;;;;;8352300;28;20283;-72
2023/11/14 20:23:53;;;;;;;;;;;10.80;99.90;;;;;;8351366;28;19968;-72
2023/11/14 20:27:55;;;;;;;;;;;10.80;99.90;;;;;;8350547;28;19924;-72
2023/11/14 20:31:56;;;;;;;;;;;10.80;99.90;;;;;;8347032;28;20459;-72
2023/11/14 20:35:58;;;;;;;;;;;10.80;99.90;;;;;;8349481;28;19951;-72
2023/11/14 20:40:00;;;;;;;;;;;10.80;99.90;;;;;;8351271;28;19937;-72
2023/11/14 20:44:02;;;;;;;;;;;10.80;99.90;;;;;;8325621;28;20334;-71
2023/11/14 20:48:03;;;;;;;;;;;10.80;99.90;;;;;;8347658;28;19933;-72
2023/11/14 20:52:07;;;;;;;;;;;10.80;99.90;;;;;;8335128;28;20289;-72
2023/11/14 20:56:09;;;;;;;;;;;10.80;99.90;;;;;;8333640;28;19964;-72
2023/11/14 21:00:11;;;;;;;;;;;10.80;99.90;;;;;;8345641;28;20399;-72
2023/11/14 21:04:13;;;;;;;;;;;10.80;99.90;;;;;;8348375;28;19928;-72
2023/11/14 21:08:14;;;;;;;;;;;10.80;99.90;;;;;;8348885;28;19924;-71
2023/11/14 21:12:16;;;;;;;;;;;10.80;99.90;;;;;;8345766;28;19931;-71
2023/11/14 21:16:18;;;;;;;;;;;10.80;99.90;;;;;;8362085;28;19940;-71
2023/11/14 21:20:20;;;;;;;;;;;10.80;99.90;;;;;;8346999;28;19932;-71
2023/11/14 21:24:21;;;;;;;;;;;10.80;99.90;;;;;;8348182;28;19976;-72
2023/11/14 21:28:23;;;;;;;;;;;10.70;99.90;;;;;;8348585;28;19959;-71
2023/11/14 21:32:30;;;;;;;;;;;10.70;99.90;;;;;;8346795;28;19929;-72
2023/11/14 21:36:32;;;;;;;;;;;10.70;99.90;;;;;;8349681;28;19924;-72
2023/11/14 21:40:34;;;;;;;;;;;10.70;99.90;;;;;;8343669;28;19940;-72
2023/11/14 21:49:17;;;;;;;;;;;10.60;99.90;;;;;;8346680;28;19952;-72
2023/11/14 21:53:18;;;;;;;;;;;10.60;99.90;;;;;;8346467;28;19933;-72
2023/11/14 21:57:20;;;;;;;;;;;10.50;99.90;;;;;;8329548;28;19982;-73
2023/11/14 22:01:22;;;;;;;;;;;10.50;99.90;;;;;;8345021;28;19932;-72
2023/11/14 22:05:24;;;;;;;;;;;10.50;99.90;;;;;;8355101;28;20305;-72
2023/11/14 22:09:25;;;;;;;;;;;10.40;99.90;;;;;;8353761;28;19929;-72
2023/11/14 22:13:27;;;;;;;;;;;10.40;99.90;;;;;;8347035;28;19995;-72
2023/11/14 22:17:29;;;;;;;;;;;10.40;99.90;;;;;;8351651;28;20380;-72
2023/11/14 22:21:31;;;;;;;;;;;10.40;99.90;;;;;;8350388;28;19929;-72
2023/11/14 22:25:33;;;;;;;;;;;10.40;99.90;;;;;;8353976;28;20285;-72
2023/11/14 22:29:35;;;;;;;;;;;10.40;99.90;;;;;;8353675;28;20284;-71
2023/11/14 22:33:37;;;;;;;;;;;10.40;99.90;;;;;;8354435;28;19962;-71
2023/11/14 22:37:38;;;;;;;;;;;10.40;99.90;;;;;;8356883;28;19951;-72
2023/11/14 22:41:41;;;;;;;;;;;10.30;99.90;;;;;;8355713;28;19924;-71
2023/11/14 22:45:43;;;;;;;;;;;10.30;99.90;;;;;;8354931;28;20288;-71
2023/11/14 22:49:46;;;;;;;;;;;10.30;99.90;;;;;;8356121;28;19932;-72
2023/11/14 22:53:47;;;;;;;;;;;10.40;99.90;;;;;;8353143;28;19925;-71
2023/11/14 22:57:49;;;;;;;;;;;10.40;99.90;;;;;;8356523;28;19994;-71
2023/11/14 23:01:52;;;;;;;;;;;10.40;99.90;;;;;;8354668;28;19932;-71
2023/11/14 23:05:54;;;;;;;;;;;10.40;99.90;;;;;;8349520;28;19968;-72
2023/11/14 23:09:56;;;;;;;;;;;10.40;99.90;;;;;;8354280;28;19929;-72
2023/11/14 23:13:57;;;;;;;;;;;10.50;99.90;;;;;;8352647;28;19925;-72
2023/11/14 23:18:00;;;;;;;;;;;10.50;99.90;;;;;;8356261;28;19925;-72
2023/11/14 23:22:04;;;;;;;;;;;10.50;99.90;;;;;;8355272;28;20463;-72
2023/11/14 23:26:06;;;;;;;;;;;10.50;99.90;;;;;;8342488;28;19932;-72
2023/11/14 23:30:08;;;;;;;;;;;10.50;99.90;;;;;;8354257;28;19935;-72
2023/11/14 23:34:10;;;;;;;;;;;10.50;99.90;;;;;;8355616;28;19925;-72
2023/11/14 23:38:12;;;;;;;;;;;10.50;99.90;;;;;;8361939;28;20010;-72
2023/11/14 23:42:16;;;;;;;;;;;10.40;99.90;;;;;;8353652;28;19924;-72
2023/11/14 23:46:20;;;;;;;;;;;10.50;99.90;;;;;;8360161;28;19925;-71
2023/11/14 23:50:21;;;;;;;;;;;10.40;99.90;;;;;;8362495;28;19925;-72
2023/11/14 23:54:23;;;;;;;;;;;10.50;99.90;;;;;;8357947;28;19925;-71